ATL weather

Hartsfield Jackson Atlanta International Airport
Atlanta, Georgia, United States

Public forecast

Using degrees Fahrenheit for public forecast. Weather courtesy of forecast.io.

METAR (pilot weather report)

Retrieved 2017/08/17 02:52 UTC (14 minutes ago):

KATL 170252Z 27004KT 10SM FEW200 28/23 A3010 RMK AO2 SLP182 LTG DSNT NE CB DSNT NE T02780233 53022 $

TAF (pilot weather forecast)

Forecast is more than 12 hours old.

Retrieved 2017/08/16 00:28 UTC (1 day ago):

TAF KATL 162325Z 1700/1806 26007KT P6SM VCSH SCT040 SCT250 FM170100 25005KT P6SM FEW050 SCT250 FM170500 26005KT P6SM SCT250 FM171400 27005KT P6SM SCT025 SCT200 FM172000 26007KT P6SM SCT060 BKN120 PROB30 1720/1724 4SM -TSRA BKN050CB FM180100 25004KT P6SM FEW050 SCT250